Latest Weather Observations for Onslow Airport

IDW60801

Issued at 4:34 pm WST Sunday 28 August 2016 (issued every 30 minutes, with the page automatically refreshed every 10 minutes)

About weather observations | Map of weather stations | Latest weather observations for WA | Other Formats
Station Details ID: 005017 Name: ONSLOW AIRPORT Lat: -21.67 Lon: 115.11 Height: 10.5 m
Data from the previous 72 hours. | See also: Recent months at Onslow Airport
Date/Time
WST
Temp
°C
App
Temp
°C
Dew
Point
°C
Rel
Hum
%
Delta-T
°C
Wind Press
QNH
hPa
Press
MSL
hPa
Rain since
9am
mm
Dir  Spd
km/h
Gust
km/h
Spd
kts
Gust
kts
28/04:30pm 22.9 18.8 11.3 48 6.5 W 24 32 13 17 1011.9 1011.9 0.0
28/04:00pm 23.4 19.0 11.8 48 6.5 W 26 32 14 17 1011.9 1011.9 0.0
28/03:30pm 25.0 21.2 8.9 36 8.7 SW 19 24 10 13 1011.8 1011.8 0.0
28/03:00pm 24.9 20.5 8.8 36 8.7 SW 22 32 12 17 1011.8 1011.8 0.0
28/02:30pm 25.2 21.5 9.5 37 8.6 SSW 19 28 10 15 1011.8 1011.8 0.0
28/02:00pm 26.0 22.3 10.2 37 8.8 SSW 20 35 11 19 1012.3 1012.3 0.0
28/01:30pm 24.8 20.6 9.9 39 8.2 SSW 22 32 12 17 1012.7 1012.7 0.0
28/01:00pm 24.9 20.8 10.0 39 8.2 SSW 22 30 12 16 1013.3 1013.3 0.0
28/12:30pm 24.6 21.0 10.5 41 7.8 SW 20 30 11 16 1013.4 1013.4 0.0
28/12:00pm 24.5 21.2 10.8 42 7.6 SSW 19 26 10 14 1013.9 1013.9 0.0
28/11:30am 24.0 20.7 11.0 44 7.3 S 19 26 10 14 1014.4 1014.4 0.0
28/11:00am 22.8 19.5 11.5 49 6.3 S 20 28 11 15 1015.0 1015.0 0.0
28/10:30am 22.1 18.4 11.5 51 5.9 SSE 22 30 12 16 1015.4 1015.4 0.0
28/10:00am 21.1 16.6 11.4 54 5.4 SSE 26 32 14 17 1015.5 1015.5 0.0
28/09:30am 20.7 17.2 12.1 58 4.8 SSE 22 30 12 16 1015.7 1015.7 0.0
28/09:00am 20.3 16.9 12.5 61 4.4 SSE 22 30 12 16 1015.8 1015.8 1.6
28/08:30am 19.7 16.4 12.9 65 3.8 SSE 22 28 12 15 1015.7 1015.7 1.6
28/08:00am 18.9 15.5 12.6 67 3.5 S 22 28 12 15 1015.1 1015.1 1.6
28/07:30am 18.4 15.8 13.3 72 2.9 SSE 19 24 10 13 1014.7 1014.7 1.6
28/07:00am 18.2 15.6 13.3 73 2.8 S 19 22 10 12 1014.4 1014.4 1.6
28/06:30am 18.1 14.9 13.0 72 2.9 S 22 30 12 16 1014.1 1014.1 1.6
28/06:00am 18.2 14.1 12.6 70 3.1 S 26 30 14 16 1013.7 1013.7 1.6
28/05:30am 17.9 14.8 13.4 75 2.5 SSE 22 30 12 16 1013.5 1013.5 1.6
28/05:00am 17.7 14.6 14.6 82 1.8 S 24 30 13 16 1013.3 1013.3 1.6
28/04:30am 17.7 14.1 15.3 86 1.4 S 28 33 15 18 1013.4 1013.4 1.6
28/04:00am 18.3 14.8 15.6 84 1.6 S 28 35 15 19 1013.2 1013.2 1.6
28/03:30am 18.5 17.2 15.9 85 1.5 S 17 24 9 13 1013.0 1013.0 1.6
28/03:00am 18.6 17.4 16.0 85 1.5 SSW 17 20 9 11 1012.9 1012.9 1.6
28/02:30am 18.8 17.6 16.2 85 1.6 S 17 22 9 12 1013.1 1013.1 1.6
28/02:00am 18.9 17.7 16.1 84 1.7 S 17 24 9 13 1013.3 1013.3 1.6
28/01:30am 19.4 17.8 16.4 83 1.8 SSW 20 26 11 14 1013.3 1013.3 1.6
28/01:00am 20.0 18.1 16.8 82 1.9 SSW 22 28 12 15 1013.2 1013.2 1.6
28/12:30am 20.1 19.9 17.7 86 1.5 S 15 20 8 11 1013.3 1013.3 1.6
28/12:00am 20.5 20.0 17.9 85 1.6 SW 17 22 9 12 1013.6 1013.6 1.6
 
Date/Time
WST
Temp
°C
App
Temp
°C
Dew
Point
°C
Rel
Hum
%
Delta-T
°C
Wind Press
QNH
hPa
Press
MSL
hPa
Rain since
9am
mm
Dir  Spd
km/h
Gust
km/h
Spd
kts
Gust
kts
27/11:30pm 20.9 21.1 18.5 86 1.5 SW 15 20 8 11 1013.5 1013.5 1.6
27/11:00pm 21.0 21.7 18.9 88 1.3 WSW 13 19 7 10 1013.5 1013.5 1.6
27/10:30pm 21.0 21.9 19.3 90 1.1 WSW 13 17 7 9 1013.7 1013.7 1.6
27/10:00pm 21.0 22.0 19.5 91 1.0 W 13 17 7 9 1013.8 1013.8 1.6
27/09:30pm 21.1 22.2 19.6 91 1.0 W 13 17 7 9 1013.5 1013.5 1.6
27/09:00pm 21.0 20.9 19.5 91 1.0 SW 19 26 10 14 1013.4 1013.4 1.6
27/08:30pm 21.5 23.3 19.6 89 1.2 WNW 9 11 5 6 1013.3 1013.3 1.6
27/08:00pm 22.6 23.2 18.6 78 2.5 W 13 17 7 9 1013.1 1013.1 0.0
27/07:30pm 22.8 22.9 18.3 76 2.8 W 15 19 8 10 1013.1 1013.1 0.0
27/07:00pm 22.9 22.9 18.2 75 2.9 WNW 15 19 8 10 1012.7 1012.7 0.0
27/06:30pm 23.0 22.6 18.1 74 3.1 WNW 17 20 9 11 1012.5 1012.5 0.0
27/06:00pm 23.3 23.1 17.7 71 3.5 WNW 15 22 8 12 1012.4 1012.4 0.0
27/05:30pm 23.7 22.6 17.4 68 3.9 WNW 19 24 10 13 1012.4 1012.4 0.0
27/05:00pm 24.2 23.0 17.0 64 4.4 WNW 19 24 10 13 1012.3 1012.3 0.0
27/04:30pm 25.7 23.8 16.8 58 5.5 WNW 22 30 12 16 1012.0 1012.0 0.0
27/04:00pm 25.3 24.4 18.2 64 4.5 NW 20 28 11 15 1012.0 1012.0 0.0
27/03:30pm 25.6 24.7 19.0 67 4.2 NNW 22 28 12 15 1011.8 1011.8 0.0
27/03:00pm 25.9 25.2 18.3 63 4.8 NNW 19 24 10 13 1011.9 1011.9 0.0
27/02:30pm 26.2 25.0 17.0 57 5.7 NNW 19 28 10 15 1012.0 1012.0 0.0
27/02:00pm 26.8 25.5 16.7 54 6.3 N 19 26 10 14 1012.3 1012.3 0.0
27/01:30pm 26.5 25.0 17.6 58 5.6 N 22 28 12 15 1012.6 1012.6 0.0
27/01:00pm 26.2 24.9 17.3 58 5.6 N 20 26 11 14 1013.0 1013.0 0.0
27/12:30pm 26.4 25.1 17.2 57 5.7 N 20 28 11 15 1013.4 1013.4 0.0
27/12:00pm 26.2 24.6 16.4 54 6.0 N 20 26 11 14 1013.6 1013.6 0.0
27/11:30am 26.8 25.5 16.7 54 6.3 N 19 24 10 13 1014.0 1014.0 0.0
27/11:00am 25.6 25.0 16.7 58 5.5 NNE 15 22 8 12 1014.4 1014.4 0.0
27/10:30am 25.2 23.8 16.9 60 5.1 NNE 20 26 11 14 1014.6 1014.6 0.0
27/10:00am 25.7 24.5 17.6 61 5.1 N 20 26 11 14 1015.0 1015.0 0.0
27/09:30am 24.3 23.1 17.1 64 4.5 N 19 22 10 12 1015.1 1015.1 0.0
27/09:00am 24.5 23.5 17.5 65 4.4 NNE 19 20 10 11 1014.8 1014.8 0.0
27/08:30am 22.9 22.9 18.0 74 3.1 NNE 15 19 8 10 1014.6 1014.6 0.0
27/08:00am 21.7 22.3 18.5 82 2.0 NNE 13 17 7 9 1014.5 1014.5 0.0
27/07:30am 20.7 21.3 18.6 88 1.3 NNE 13 15 7 8 1014.4 1014.4 0.0
27/07:00am 19.6 19.6 17.2 86 1.5 NNE 13 15 7 8 1014.0 1014.0 0.0
27/06:30am 19.4 18.6 17.2 87 1.3 N 17 20 9 11 1013.8 1013.8 0.0
27/06:00am 18.6 18.3 17.3 92 0.8 NNE 15 17 8 9 1013.5 1013.5 0.0
27/05:30am 19.1 19.0 17.8 92 0.8 NNE 15 19 8 10 1013.3 1013.3 0.0
27/05:00am 18.8 18.2 17.6 93 0.7 NNE 17 20 9 11 1013.2 1013.2 0.0
27/04:30am 17.9 17.0 16.9 94 0.6 NNE 17 19 9 10 1013.2 1013.2 0.0
27/04:00am 16.0 17.1 14.7 92 0.7 SSE 2 9 1 5 1013.4 1013.4 0.0
27/03:30am 16.3 16.6 15.0 92 0.8 SSE 7 13 4 7 1013.6 1013.6 0.0
27/03:00am 16.5 16.9 15.4 93 0.6 NNE 7 7 4 4 1013.7 1013.7 0.0
27/02:30am 17.4 18.4 16.4 94 0.6 N 6 9 3 5 1013.8 1013.8 0.0
27/02:00am 16.7 18.6 15.7 94 0.6 CALM 0 0 0 0 1014.0 1014.0 0.0
27/01:30am 17.1 17.8 16.1 94 0.6 SW 7 9 4 5 1014.0 1014.0 0.0
27/01:00am 16.5 16.9 15.4 93 0.6 WSW 7 11 4 6 1014.3 1014.3 0.0
27/12:30am 17.4 19.4 16.1 92 0.8 CALM 0 0 0 0 1014.2 1014.2 0.0
27/12:00am 17.8 18.6 16.3 91 0.9 NNE 7 11 4 6 1014.2 1014.2 0.0
 
Date/Time
WST
Temp
°C
App
Temp
°C
Dew
Point
°C
Rel
Hum
%
Delta-T
°C
Wind Press
QNH
hPa
Press
MSL
hPa
Rain since
9am
mm
Dir  Spd
km/h
Gust
km/h
Spd
kts
Gust
kts
26/11:30pm 18.6 18.6 17.1 91 0.9 NNE 13 15 7 8 1014.3 1014.3 0.0
26/11:00pm 18.1 18.0 16.1 88 1.2 NNE 11 13 6 7 1014.7 1014.7 0.0
26/10:30pm 18.2 18.9 16.0 87 1.3 N 7 7 4 4 1014.9 1014.9 0.0
26/10:00pm 18.7 18.4 16.5 87 1.3 N 13 15 7 8 1014.8 1014.8 0.0
26/09:30pm 18.8 18.4 16.2 85 1.6 N 13 15 7 8 1014.9 1014.9 0.0
26/09:00pm 18.4 17.7 15.5 83 1.7 NNE 13 19 7 10 1015.2 1015.2 0.0
26/08:30pm 18.4 18.3 14.9 80 2.0 N 9 11 5 6 1015.8 1015.8 0.0
26/08:00pm 18.9 19.4 15.6 81 1.9 N 7 9 4 5 1016.0 1016.0 0.0
26/07:30pm 18.9 18.8 15.0 78 2.3 N 9 11 5 6 1015.7 1015.7 0.0
26/07:00pm 19.2 18.6 14.7 75 2.6 N 11 11 6 6 1015.3 1015.3 0.0
26/06:30pm 19.8 19.4 14.2 70 3.2 N 9 11 5 6 1015.0 1015.0 0.0
26/06:00pm 20.9 20.3 14.5 67 3.7 N 11 15 6 8 1014.9 1014.9 0.0
26/05:30pm 21.8 19.8 13.9 61 4.6 N 17 24 9 13 1014.8 1014.8 0.0
26/05:00pm 22.7 19.9 13.2 55 5.5 N 20 26 11 14 1014.5 1014.5 0.0
26/04:30pm 23.0 19.3 12.6 52 5.9 N 24 32 13 17 1014.1 1014.1 0.0
26/04:00pm 23.4 19.7 12.7 51 6.1 NNE 24 32 13 17 1014.0 1014.0 0.0
26/03:30pm 24.1 19.8 12.1 47 6.8 N 26 33 14 18 1014.0 1014.0 0.0
26/03:00pm 24.2 18.8 10.8 43 7.5 N 30 41 16 22 1014.1 1014.1 0.0
26/02:30pm 24.2 18.4 10.8 43 7.5 N 32 41 17 22 1014.3 1014.3 0.0
26/02:00pm 24.7 18.7 10.2 40 8.0 N 32 43 17 23 1014.8 1014.8 0.0
26/01:30pm 24.4 18.1 8.8 37 8.4 N 32 41 17 22 1015.2 1015.2 0.0
26/01:00pm 24.8 18.5 9.1 37 8.5 N 32 39 17 21 1015.5 1015.5 0.0
26/12:30pm 24.7 18.5 7.8 34 8.9 NNE 30 39 16 21 1016.0 1016.0 0.0
26/12:00pm 24.8 18.8 7.0 32 9.3 NNE 28 37 15 20 1016.4 1016.4 0.0
26/11:30am 24.3 18.3 7.0 33 9.0 NNE 28 33 15 18 1016.7 1016.7 0.0
26/11:00am 25.0 19.2 4.2 26 10.3 NNE 24 30 13 16 1017.1 1017.1 0.0
26/10:30am 25.3 20.1 3.3 24 10.8 NNE 20 28 11 15 1017.4 1017.4 0.0
26/10:00am 24.0 20.8 8.4 37 8.3 ENE 15 19 8 10 1017.3 1017.3 0.0
26/09:30am 22.6 20.1 9.7 44 7.0 E 13 17 7 9 1017.1 1017.1 0.0
26/09:00am 21.5 19.5 11.5 53 5.6 E 13 15 7 8 1017.2 1017.2 0.0
26/08:30am 19.6 18.8 11.6 60 4.4 E 7 11 4 6 1017.4 1017.4 0.0
26/08:00am 17.1 17.5 11.2 68 3.2 CALM 0 6 0 3 1017.2 1017.2 0.0
26/07:30am 14.6 13.7 10.6 77 2.1 SSE 6 7 3 4 1017.0 1017.0 0.0
26/07:00am 12.7 11.5 9.5 81 1.6 ESE 6 6 3 3 1016.6 1016.6 0.0
26/06:30am 11.9 9.6 9.1 83 1.4 ESE 11 13 6 7 1016.3 1016.3 0.0
26/06:00am 12.6 10.2 10.0 84 1.3 ESE 13 19 7 10 1015.9 1015.9 0.0
26/05:30am 12.6 10.2 10.0 84 1.3 ESE 13 15 7 8 1015.5 1015.5 0.0
26/05:00am 13.0 10.7 10.4 84 1.3 ESE 13 15 7 8 1015.4 1015.4 0.0
26/04:30am 13.7 11.9 10.9 83 1.5 ESE 11 11 6 6 1015.2 1015.2 0.0
26/04:00am 13.9 12.4 10.7 81 1.7 ESE 9 11 5 6 1015.2 1015.2 0.0
26/03:30am 13.5 12.1 10.9 84 1.4 ESE 9 11 5 6 1015.4 1015.4 0.0
26/03:00am 13.9 12.3 11.4 85 1.3 ESE 11 11 6 6 1015.4 1015.4 0.0
26/02:30am 14.0 12.4 11.7 86 1.2 ESE 11 13 6 7 1015.7 1015.7 0.0
26/02:00am 14.0 12.5 11.9 87 1.1 ESE 11 13 6 7 1016.0 1016.0 0.0
26/01:30am 14.3 13.7 12.2 87 1.1 ESE 7 11 4 6 1016.1 1016.1 0.0
26/01:00am 14.4 13.4 12.3 87 1.1 SE 9 13 5 7 1016.4 1016.4 0.0
26/12:30am 15.6 14.9 13.1 85 1.4 E 9 11 5 6 1016.5 1016.5 0.0
26/12:00am 16.1 16.2 13.8 86 1.3 NNE 6 7 3 4 1016.6 1016.6 0.0
 
Date/Time
WST
Temp
°C
App
Temp
°C
Dew
Point
°C
Rel
Hum
%
Delta-T
°C
Wind Press
QNH
hPa
Press
MSL
hPa
Rain since
9am
mm
Dir  Spd
km/h
Gust
km/h
Spd
kts
Gust
kts
25/11:30pm 16.5 16.4 13.8 84 1.5 NE 7 9 4 5 1016.6 1016.6 0.0
25/11:00pm 17.1 17.2 14.0 82 1.8 NE 6 9 3 5 1016.8 1016.8 0.0
25/10:30pm 17.2 17.3 13.9 81 1.9 NE 6 7 3 4 1017.0 1017.0 0.0
25/10:00pm 17.2 17.4 14.1 82 1.8 NE 6 7 3 4 1017.0 1017.0 0.0
25/09:30pm 17.3 17.4 14.0 81 1.9 NE 6 7 3 4 1017.1 1017.1 0.0
25/09:00pm 17.8 18.0 14.1 79 2.1 NE 6 7 3 4 1017.0 1017.0 0.0
25/08:30pm 18.9 19.1 14.8 77 2.4 NE 7 9 4 5 1017.0 1017.0 0.0
25/08:00pm 18.3 17.7 13.6 74 2.7 NNE 9 11 5 6 1017.0 1017.0 0.0
25/07:30pm 19.0 18.4 13.6 71 3.1 N 9 11 5 6 1016.8 1016.8 0.0
25/07:00pm 19.0 17.6 13.4 70 3.2 N 13 15 7 8 1016.5 1016.5 0.0
25/06:30pm 19.4 18.4 13.3 68 3.5 N 11 13 6 7 1016.4 1016.4 0.0
25/06:00pm 21.1 19.6 13.0 60 4.6 N 13 17 7 9 1016.0 1016.0 0.0
25/05:30pm 22.5 19.5 12.7 54 5.6 N 20 26 11 14 1015.7 1015.7 0.0
25/05:00pm 23.3 19.8 12.3 50 6.3 N 22 28 12 15 1015.6 1015.6 0.0

Other Formats:

Comma delimited format used in spreadsheet applications
http://www.bom.gov.au/fwo/IDW60801/IDW60801.95305.axf

JavaScript Object Notation format (JSON) in row-major order
http://www.bom.gov.au/fwo/IDW60801/IDW60801.95305.json